This is the latest recevied weather packets stored in our database for station/object W7DG. If no packets are shown the sender has not sent any weather packets the latest 10 day(s).
| Time | Temp. | Humidity | Pressure | Rain* | Wind** | Luminosity | Snow |
|---|---|---|---|---|---|---|---|
| 1777267451 | 7.78° C | 87% | 1014.7 hPa | 0 mm | - | - | - |
| 1777267090 | 7.78° C | 87% | 1014.7 hPa | 0 mm | - | - | - |
| 1777266552 | 7.78° C | 86% | 1014.7 hPa | 0 mm | - | - | - |
| 1777266190 | 7.78° C | 86% | 1014.6 hPa | 0 mm | - | - | - |
| 1777265651 | 7.78° C | 86% | 1014.6 hPa | 0 mm | - | - | - |
| 1777265290 | 7.78° C | 86% | 1014.7 hPa | 0 mm | - | - | - |
| 1777264751 | 7.78° C | 86% | 1014.4 hPa | 0 mm | - | - | - |
| 1777264390 | 7.78° C | 86% | 1014.3 hPa | 0 mm | - | - | - |
| 1777263851 | 7.78° C | 86% | 1014.2 hPa | 0 mm | - | - | - |
| 1777263490 | 7.78° C | 86% | 1014 hPa | 0 mm | - | - | - |
| 1777262951 | 7.78° C | 87% | 1014.1 hPa | 0 mm | - | - | - |
| 1777262590 | 8.33° C | 86% | 1013.9 hPa | 0 mm | - | - | - |
| 1777262051 | 8.33° C | 86% | 1013.8 hPa | 0 mm | - | - | - |
| 1777261690 | 8.33° C | 86% | 1013.7 hPa | 0 mm | - | - | - |
| 1777261151 | 8.33° C | 86% | 1013.7 hPa | 0 mm | - | - | - |
| 1777260790 | 8.33° C | 86% | 1013.7 hPa | 0 mm | - | - | - |
| 1777260251 | 8.89° C | 85% | 1013.5 hPa | 0 mm | - | - | - |
| 1777259890 | 8.89° C | 85% | 1013.3 hPa | 0 mm | - | - | - |
| 1777259351 | 9.44° C | 85% | 1013.3 hPa | 0 mm | - | - | - |
| 1777258990 | 9.44° C | 84% | 1013.1 hPa | 0 mm | - | - | - |
| 1777210751 | 5° C | 76% | 1010 hPa | 0 mm | - | - | - |
| 1777210390 | 5° C | 75% | 1009.9 hPa | 0 mm | - | - | - |
| 1777209851 | 5.56° C | 73% | 1009.9 hPa | 0 mm | - | - | - |
| 1777209490 | 5.56° C | 73% | 1009.8 hPa | 0 mm | - | - | - |
| 1777208951 | 5.56° C | 74% | 1009.8 hPa | 0 mm | - | - | - |
* Rain latest hour (hover to see other rain measurements)
** Current wind speed in m/s (hover to see current wind gust speed)